Time;durP1;ratioP1;P1;durP2;ratioP2;P2;SDS_P1;SDS_P2;PMS_P1;PMS_P2;Temp;Humidity;BMP_temperature;BMP_pressure;BME280_temperature;BME280_humidity;BME280_pressure;Samples;Min_cycle;Max_cycle;Signal;HPM_P1;HPM_P2
2023/07/12 04:11:25;;;;;;;12.07;8.45;;;;;;;21.23;92.21;100157.50;5561042;32;195385;-84
2023/07/12 04:14:28;;;;;;;9.63;8.18;;;;;;;21.23;92.21;100157.50;5550288;32;33575;-84
2023/07/12 04:17:30;;;;;;;11.82;7.60;;;;;;;20.96;90.99;100178.06;5554282;32;34315;-85
2023/07/12 04:20:38;;;;;;;9.02;7.85;;;;;;;21.13;89.88;100168.34;5557652;32;34770;-85
2023/07/12 04:23:40;;;;;;;8.57;7.40;;;;;;;21.31;90.00;100172.94;5547863;32;34025;-87
2023/07/12 04:26:43;;;;;;;10.43;8.02;;;;;;;21.44;89.61;100164.47;5545456;32;33262;-87
2023/07/12 04:29:47;;;;;;;10.70;7.60;;;;;;;21.52;88.45;100162.69;5545458;32;33632;-87
2023/07/12 04:32:51;;;;;;;9.60;7.22;;;;;;;21.56;89.92;100159.72;5546727;32;34206;-86
2023/07/12 04:35:54;;;;;;;11.60;7.40;;;;;;;21.74;89.77;100148.94;5546171;32;34119;-86
2023/07/12 04:38:57;;;;;;;10.30;8.00;;;;;;;21.86;88.08;100122.53;5545962;32;33797;-86
2023/07/12 04:41:59;;;;;;;9.20;7.50;;;;;;;21.87;84.28;100118.84;5548746;32;33900;-86
2023/07/12 04:45:03;;;;;;;15.23;7.90;;;;;;;21.94;83.80;100123.44;5565498;32;33491;-86
2023/07/12 04:48:06;;;;;;;8.68;7.40;;;;;;;22.14;83.83;100138.59;5564763;32;34694;-86
2023/07/12 04:51:09;;;;;;;11.63;7.47;;;;;;;22.17;83.72;100120.22;5564937;32;33380;-87
2023/07/12 04:54:11;;;;;;;10.52;7.75;;;;;;;22.16;82.87;100123.06;5564188;32;34417;-89
2023/07/12 04:57:14;;;;;;;8.88;7.82;;;;;;;22.15;85.75;100148.41;5563584;32;33411;-90
2023/07/12 05:00:17;;;;;;;10.00;7.40;;;;;;;22.11;85.15;100147.03;5563759;32;34488;-90
2023/07/12 05:03:20;;;;;;;13.43;8.30;;;;;;;22.05;85.85;100145.81;5563702;32;33503;-90
2023/07/12 05:06:23;;;;;;;9.88;8.55;;;;;;;21.91;84.53;100152.59;5563199;32;34093;-88
2023/07/12 05:09:26;;;;;;;13.68;8.25;;;;;;;21.69;87.54;100146.66;5562487;32;33565;-87
2023/07/12 05:12:28;;;;;;;10.00;8.20;;;;;;;21.70;85.44;100161.88;5563409;32;34498;-87
2023/07/12 05:15:31;;;;;;;11.25;8.10;;;;;;;21.64;83.34;100174.12;5563282;32;33860;-87
2023/07/12 05:18:34;;;;;;;12.93;8.00;;;;;;;21.54;85.40;100138.25;5563373;32;32503;-87
2023/07/12 05:21:37;;;;;;;9.20;7.87;;;;;;;21.60;83.90;100148.44;5553976;32;33482;-87
2023/07/12 05:24:40;;;;;;;10.68;8.45;;;;;;;21.62;84.21;100164.50;5550669;32;33746;-87
2023/07/12 05:27:43;;;;;;;9.48;7.80;;;;;;;21.64;87.19;100148.97;5549681;32;34476;-87
2023/07/12 05:30:45;;;;;;;10.07;8.32;;;;;;;21.67;87.59;100154.91;5549469;32;34432;-87
2023/07/12 05:33:49;;;;;;;12.10;8.23;;;;;;;21.68;88.89;100139.56;5550610;32;33527;-87
2023/07/12 05:36:51;;;;;;;13.93;7.97;;;;;;;21.68;91.63;100144.97;5543414;32;33592;-85
2023/07/12 05:39:54;;;;;;;9.38;8.00;;;;;;;21.68;90.45;100151.22;5530603;32;33579;-85
2023/07/12 05:42:59;;;;;;;9.38;7.70;;;;;;;21.75;89.91;100146.06;5530878;32;33706;-85
2023/07/12 05:46:03;;;;;;;9.15;7.50;;;;;;;22.77;84.47;100131.22;5531090;32;33884;-85
2023/07/12 05:49:06;;;;;;;17.95;7.90;;;;;;;24.70;73.98;100139.28;5532343;32;33851;-85
2023/07/12 05:52:09;;;;;;;10.75;7.60;;;;;;;27.01;61.63;100148.53;5531598;32;34391;-85
2023/07/12 05:55:15;;;;;;;15.02;7.78;;;;;;;28.41;54.54;100158.25;5531199;32;33731;-85
2023/07/12 05:58:17;;;;;;;9.90;7.50;;;;;;;28.65;53.38;100159.66;5539354;32;34595;-85
2023/07/12 06:01:20;;;;;;;18.17;7.93;;;;;;;28.73;54.07;100166.00;5540971;32;34130;-86
2023/07/12 06:04:23;;;;;;;11.70;7.35;;;;;;;29.43;52.08;100170.50;5524550;32;35151;-85
2023/07/12 06:07:26;;;;;;;9.70;7.55;;;;;;;29.73;49.29;100172.91;5512879;32;34250;-85
2023/07/12 06:10:28;;;;;;;11.60;6.97;;;;;;;29.98;47.93;100156.72;5561146;26;33564;-80
2023/07/12 06:13:31;;;;;;;11.80;7.37;;;;;;;30.29;47.07;100154.41;5549079;32;33856;-84
2023/07/12 06:16:34;;;;;;;9.18;7.18;;;;;;;30.71;46.43;100140.44;5548542;32;33483;-83
2023/07/12 06:19:40;;;;;;;8.85;7.28;;;;;;;30.17;46.32;100134.25;5548700;32;34492;-84
2023/07/12 06:22:43;;;;;;;13.20;7.20;;;;;;;30.66;44.80;100115.59;5549399;32;34421;-88
2023/07/12 06:25:45;;;;;;;10.30;6.47;;;;;;;31.10;43.82;100104.03;5555174;32;34645;-88
2023/07/12 06:28:48;;;;;;;8.32;6.75;;;;;;;31.53;43.46;100103.34;5555551;32;34533;-88
2023/07/12 06:31:54;;;;;;;13.68;6.55;;;;;;;31.58;42.12;100099.97;5545503;32;34446;-88
2023/07/12 06:34:57;;;;;;;7.47;6.70;;;;;;;31.79;41.04;100095.16;5536712;32;33566;-85
2023/07/12 06:37:59;;;;;;;8.77;7.70;;;;;;;30.82;43.64;100089.66;5536297;32;34094;-85
2023/07/12 06:41:02;;;;;;;9.63;7.40;;;;;;;30.24;44.66;100091.31;5543759;32;33722;-84
2023/07/12 06:44:05;;;;;;;10.40;6.68;;;;;;;29.33;47.82;100083.50;5535245;32;33242;-85
2023/07/12 06:47:08;;;;;;;11.80;6.62;;;;;;;29.11;48.76;100088.28;5535677;32;33771;-83
2023/07/12 06:50:10;;;;;;;9.07;7.15;;;;;;;28.72;49.74;100096.09;5544020;32;33869;-84
2023/07/12 06:53:13;;;;;;;7.85;6.62;;;;;;;28.33;50.42;100088.37;5554142;32;33813;-83
2023/07/12 06:56:16;;;;;;;8.77;6.82;;;;;;;28.49;50.71;100091.78;5553319;32;34912;-83
2023/07/12 06:59:19;;;;;;;11.52;8.07;;;;;;;28.61;51.84;100086.62;5545186;32;34498;-83
2023/07/12 07:02:21;;;;;;;9.80;7.30;;;;;;;27.88;53.94;100087.81;5541109;32;34677;-83
2023/07/12 07:05:24;;;;;;;9.20;7.18;;;;;;;28.55;52.76;100080.06;5536512;32;34491;-83
2023/07/12 07:08:27;;;;;;;9.52;7.30;;;;;;;28.94;51.07;100101.44;5550916;32;33584;-83
2023/07/12 07:11:30;;;;;;;17.05;8.00;;;;;;;28.43;53.31;100093.44;5551456;32;33823;-83
2023/07/12 07:14:33;;;;;;;8.82;7.60;;;;;;;28.44;52.30;100086.09;5551407;32;33593;-83
2023/07/12 07:17:36;;;;;;;15.48;8.02;;;;;;;28.47;52.80;100075.63;5551371;32;33734;-83
2023/07/12 07:20:40;;;;;;;10.73;7.87;;;;;;;28.85;51.51;100071.59;5552105;32;33802;-83
2023/07/12 07:23:43;;;;;;;10.23;7.45;;;;;;;28.68;50.22;100067.53;5540451;32;34139;-83
2023/07/12 07:26:48;;;;;;;12.27;8.05;;;;;;;29.00;52.04;100060.53;5550513;32;33626;-83
2023/07/12 07:29:51;;;;;;;14.20;7.85;;;;;;;29.42;50.20;100043.16;5550263;32;33946;-83
2023/07/12 07:32:54;;;;;;;11.20;7.60;;;;;;;29.82;49.52;100013.09;5549527;32;34074;-83
2023/07/12 07:35:57;;;;;;;10.05;8.05;;;;;;;29.86;48.27;100010.78;5551965;32;33859;-83
2023/07/12 07:39:00;;;;;;;15.35;8.35;;;;;;;29.30;47.39;100015.62;5552476;32;34094;-84
2023/07/12 07:42:03;;;;;;;12.70;8.32;;;;;;;29.11;47.84;100018.12;5554323;32;34801;-85
2023/07/12 07:45:06;;;;;;;10.48;7.85;;;;;;;29.71;47.57;99997.34;5548220;32;33913;-85
2023/07/12 07:48:10;;;;;;;14.57;8.48;;;;;;;29.35;46.35;100007.66;5542272;32;34629;-86
2023/07/12 07:51:13;;;;;;;15.20;8.32;;;;;;;29.67;45.22;100004.31;5548099;32;35124;-85
2023/07/12 07:54:16;;;;;;;10.07;7.45;;;;;;;30.06;47.50;99994.34;5548817;32;33773;-85
2023/07/12 07:57:19;;;;;;;9.82;7.82;;;;;;;30.61;44.99;99992.25;5547930;32;34418;-85
2023/07/12 08:00:22;;;;;;;11.48;8.18;;;;;;;30.82;45.76;99993.00;5546054;32;33391;-84
2023/07/12 08:03:26;;;;;;;10.48;8.48;;;;;;;30.96;45.23;99983.63;5546210;32;32559;-86
2023/07/12 08:06:28;;;;;;;18.05;8.63;;;;;;;31.24;42.07;99981.53;5545118;32;33803;-86
2023/07/12 08:09:35;;;;;;;15.25;8.73;;;;;;;30.82;45.54;99974.66;5544489;32;34571;-85
2023/07/12 08:12:37;;;;;;;10.93;9.48;;;;;;;30.90;43.91;99960.72;5541493;32;34737;-86
2023/07/12 08:15:41;;;;;;;9.20;8.25;;;;;;;31.37;42.25;99958.69;5536905;32;33697;-85
2023/07/12 08:18:45;;;;;;;14.30;8.30;;;;;;;31.82;41.76;99958.44;5544504;32;33966;-86
2023/07/12 08:21:49;;;;;;;11.00;8.52;;;;;;;32.39;41.26;99956.53;5554387;32;34533;-85
2023/07/12 08:24:52;;;;;;;9.82;8.82;;;;;;;32.66;39.76;99956.19;5552642;32;34337;-85
2023/07/12 08:27:55;;;;;;;11.70;8.55;;;;;;;32.09;40.57;99954.59;5553047;32;34408;-85
2023/07/12 08:30:57;;;;;;;24.87;9.18;;;;;;;31.91;41.91;99945.31;5551218;32;32989;-85
2023/07/12 08:34:00;;;;;;;11.10;9.02;;;;;;;31.89;42.44;99936.47;5568361;32;33526;-85
2023/07/12 08:37:04;;;;;;;12.27;8.65;;;;;;;32.75;41.20;99941.06;5552247;32;33666;-86
2023/07/12 08:40:12;;;;;;;12.57;8.95;;;;;;;33.03;40.42;99944.25;5559944;32;32655;-85
2023/07/12 08:43:18;;;;;;;10.77;8.65;;;;;;;33.11;39.87;99940.31;5547646;32;33727;-90
2023/07/12 08:46:25;;;;;;;14.00;9.77;;;;;;;33.93;39.26;99943.28;5553629;32;33875;-85
2023/07/12 08:49:29;;;;;;;15.02;9.15;;;;;;;33.75;37.96;99947.87;5551592;32;33628;-86
2023/07/12 08:52:34;;;;;;;12.63;8.60;;;;;;;33.56;39.16;99955.41;5557123;32;33762;-85
2023/07/12 08:55:37;;;;;;;13.57;8.57;;;;;;;33.77;38.32;99953.13;5557169;32;33830;-86
2023/07/12 08:58:45;;;;;;;10.35;8.80;;;;;;;33.64;39.57;99948.72;5567588;32;35170;-85
2023/07/12 09:01:53;;;;;;;11.18;9.55;;;;;;;34.35;38.74;99956.00;5559646;32;34671;-85
2023/07/12 09:04:59;;;;;;;9.77;8.20;;;;;;;34.09;37.19;99955.47;5554841;32;33506;-85
2023/07/12 09:08:08;;;;;;;14.32;9.00;;;;;;;33.85;39.28;99961.81;5552240;32;34091;-86
2023/07/12 09:11:19;;;;;;;10.27;9.07;;;;;;;34.04;37.36;99972.72;5552950;32;34254;-86
2023/07/12 09:14:24;;;;;;;11.68;8.85;;;;;;;34.25;37.19;99976.72;5564585;32;33550;-86
2023/07/12 09:17:35;;;;;;;14.27;9.10;;;;;;;32.95;40.46;99978.34;5549643;32;33410;-86
2023/07/12 09:20:40;;;;;;;10.88;8.70;;;;;;;32.82;40.45;99982.12;5550187;32;34564;-87
2023/07/12 09:23:45;;;;;;;13.02;8.40;;;;;;;33.19;39.74;99979.25;5551263;32;33436;-86
2023/07/12 09:26:50;;;;;;;15.43;8.88;;;;;;;34.73;37.50;99970.22;5567096;32;35196;-87
2023/07/12 09:29:59;;;;;;;11.07;8.60;;;;;;;35.60;36.03;99961.75;5568221;32;33754;-87
2023/07/12 09:33:03;;;;;;;12.02;8.65;;;;;;;35.92;34.61;99969.34;5568221;32;33935;-86
2023/07/12 09:36:07;;;;;;;13.62;9.23;;;;;;;35.90;34.65;99974.28;5568227;32;33785;-86
2023/07/12 09:39:11;;;;;;;10.60;8.68;;;;;;;34.78;36.05;99987.66;5543424;32;33833;-86
2023/07/12 09:42:14;;;;;;;9.95;8.95;;;;;;;34.03;38.18;99986.69;5530191;32;33675;-87
2023/07/12 09:45:17;;;;;;;14.77;9.65;;;;;;;34.68;37.30;99992.97;5545799;32;34539;-86
2023/07/12 09:48:35;;;;;;;14.43;9.80;;;;;;;34.66;37.72;99996.00;5550525;32;34418;-86
2023/07/12 09:51:47;;;;;;;11.20;9.70;;;;;;;35.46;36.38;99997.91;5555957;32;34519;-86
2023/07/12 09:54:57;;;;;;;10.63;9.18;;;;;;;34.89;35.96;99991.44;5548708;32;33851;-86
2023/07/12 09:58:11;;;;;;;12.13;9.15;;;;;;;35.17;36.72;99992.50;5541598;32;34468;-90
2023/07/12 10:01:39;;;;;;;12.85;9.13;;;;;;;35.71;35.76;99991.16;5534790;32;35225;-87
2023/07/12 10:04:49;;;;;;;19.73;9.75;;;;;;;34.17;39.09;99979.03;5531637;32;34319;-86
2023/07/12 10:08:02;;;;;;;11.50;9.25;;;;;;;34.84;38.05;99980.31;5551604;32;33677;-86
2023/07/12 10:11:23;;;;;;;12.07;9.80;;;;;;;35.40;36.38;99978.78;5565331;32;33635;-86
2023/07/12 10:14:32;;;;;;;15.23;10.48;;;;;;;35.30;36.00;99972.00;5573026;32;35194;-86
2023/07/12 10:17:39;;;;;;;12.27;10.00;;;;;;;35.45;35.94;99968.66;5563313;31;34193;-85
2023/07/12 10:20:42;;;;;;;12.20;9.73;;;;;;;35.31;36.57;99976.47;5552088;32;34340;-87
2023/07/12 10:23:55;;;;;;;17.42;9.85;;;;;;;35.32;35.81;99972.63;5547316;32;33987;-86
2023/07/12 10:27:00;;;;;;;14.20;10.15;;;;;;;36.41;35.46;99964.97;5553857;32;33901;-86
2023/07/12 10:30:30;;;;;;;15.57;10.48;;;;;;;37.29;33.68;99967.78;5562409;32;34961;-86
2023/07/12 10:33:37;;;;;;;13.52;9.73;;;;;;;39.45;29.78;99953.97;5566294;32;34423;-86
2023/07/12 10:36:43;;;;;;;17.67;10.18;;;;;;;39.23;29.92;99955.16;5558051;32;33388;-86
2023/07/12 10:39:47;;;;;;;19.35;9.93;;;;;;;40.91;28.18;99965.31;5550639;32;33647;-86
2023/07/12 10:43:02;;;;;;;20.27;9.75;;;;;;;40.20;29.10;99965.44;5549104;32;33898;-91
2023/07/12 10:46:10;;;;;;;12.82;10.00;;;;;;;38.52;30.75;99957.56;5544753;32;33560;-87
2023/07/12 10:49:19;;;;;;;16.23;10.10;;;;;;;37.93;31.41;99949.34;5552365;32;34102;-86
2023/07/12 10:52:27;;;;;;;;;;;;;;;36.48;35.07;99948.19;5549021;32;33904;-86
2023/07/12 10:55:42;;;;;;;14.30;10.40;;;;;;;34.11;38.86;99934.06;5554810;32;34285;-86
2023/07/12 10:58:50;;;;;;;18.52;10.32;;;;;;;35.17;36.51;99926.34;5554809;32;34446;-87
2023/07/12 11:01:54;;;;;;;13.30;9.60;;;;;;;36.00;35.24;99910.94;5548609;32;33511;-86
2023/07/12 11:04:57;;;;;;;21.50;11.85;;;;;;;35.97;35.92;99905.94;5555320;32;34610;-87
2023/07/12 11:08:03;;;;;;;21.10;11.02;;;;;;;36.50;34.74;99912.88;5554525;32;33297;-86
2023/07/12 11:11:25;;;;;;;12.82;10.60;;;;;;;36.18;34.67;99910.91;5554204;32;33427;-87
2023/07/12 11:14:37;;;;;;;13.15;10.90;;;;;;;36.23;36.30;99921.97;5546498;32;33714;-87
2023/07/12 11:17:53;;;;;;;12.75;11.05;;;;;;;36.19;35.34;99924.44;5553678;32;33965;-88
2023/07/12 11:21:24;;;;;;;13.27;10.18;;;;;;;35.64;36.08;99924.28;5542979;32;33856;-89
2023/07/12 11:24:27;;;;;;;13.62;10.13;;;;;;;36.29;36.81;99934.75;5555811;32;33927;-88
2023/07/12 11:27:52;;;;;;;13.75;10.18;;;;;;;36.85;35.01;99944.69;5551375;32;33401;-88
2023/07/12 11:31:26;;;;;;;12.48;9.75;;;;;;;37.02;34.75;99944.59;5546865;32;33605;-88
2023/07/12 11:34:31;;;;;;;12.50;9.75;;;;;;;36.98;33.95;99940.69;5554674;32;33802;-87
2023/07/12 11:41:15;;;;;;;16.50;10.00;;;;;;;36.48;36.47;99946.28;5565474;32;34713;-87
2023/07/12 11:44:18;;;;;;;12.23;9.70;;;;;;;36.80;34.53;99948.25;5547661;32;34138;-87
2023/07/12 11:47:21;;;;;;;12.60;10.55;;;;;;;36.26;35.76;99941.63;5547481;32;33764;-87
2023/07/12 11:50:28;;;;;;;14.90;10.55;;;;;;;36.22;36.17;99940.47;5551870;32;33990;-87
2023/07/12 11:53:31;;;;;;;11.27;10.05;;;;;;;35.88;36.64;99940.59;5553197;32;34713;-87
2023/07/12 11:56:40;;;;;;;15.77;10.63;;;;;;;36.30;36.67;99941.13;5557876;32;33828;-85
2023/07/12 11:59:47;;;;;;;14.02;10.55;;;;;;;35.25;39.20;99938.88;5558245;32;33654;-86
2023/07/12 12:02:52;;;;;;;13.18;10.50;;;;;;;34.88;39.35;99937.41;5556538;32;33710;-86
2023/07/12 12:05:55;;;;;;;13.85;10.57;;;;;;;35.35;38.52;99944.53;5550688;32;33828;-86
2023/07/12 12:08:58;;;;;;;13.30;10.30;;;;;;;34.88;38.84;99933.84;5557599;32;33699;-86
2023/07/12 12:12:02;;;;;;;12.75;9.98;;;;;;;35.04;39.87;99926.66;5548307;32;33364;-86
2023/07/12 12:15:18;;;;;;;19.37;10.18;;;;;;;35.53;39.14;99933.50;5549621;32;32536;-87
2023/07/12 12:18:22;;;;;;;12.48;10.18;;;;;;;35.56;38.52;99936.56;5558113;32;33899;-86
2023/07/12 12:21:27;;;;;;;13.52;10.02;;;;;;;35.01;39.63;99936.28;5554859;32;34157;-90
2023/07/12 12:24:57;;;;;;;12.35;9.82;;;;;;;34.55;41.06;99936.28;5550142;32;34642;-90
2023/07/12 12:28:03;;;;;;;11.80;9.85;;;;;;;35.04;40.42;99932.19;5552552;32;33842;-86
2023/07/12 12:31:17;;;;;;;11.60;10.50;;;;;;;35.27;40.56;99933.09;5528876;32;33975;-86
2023/07/12 12:34:24;;;;;;;13.30;10.57;;;;;;;35.01;41.03;99927.16;5555063;32;33653;-86
2023/07/12 12:37:29;;;;;;;10.48;9.38;;;;;;;34.63;42.33;99919.38;5552766;32;33526;-87
2023/07/12 12:40:34;;;;;;;10.60;9.50;;;;;;;34.93;41.38;99917.37;5558141;32;33514;-87
2023/07/12 12:43:37;;;;;;;11.38;9.98;;;;;;;34.82;42.19;99919.13;5547087;32;33839;-86
2023/07/12 12:46:40;;;;;;;11.18;9.70;;;;;;;34.58;42.26;99908.25;5553688;32;33749;-86
2023/07/12 12:49:47;;;;;;;11.43;9.68;;;;;;;34.38;43.15;99914.19;5555937;32;33844;-86
2023/07/12 12:52:59;;;;;;;10.38;9.27;;;;;;;34.97;41.57;99903.94;5553318;32;33548;-86
2023/07/12 12:56:09;;;;;;;14.02;8.98;;;;;;;34.35;43.01;99901.78;5553479;32;33226;-86
2023/07/12 12:59:15;;;;;;;9.23;8.13;;;;;;;35.10;40.15;99883.50;5554959;32;33439;-86
2023/07/12 13:02:21;;;;;;;12.82;8.38;;;;;;;34.85;40.57;99888.34;5557884;32;33807;-87
2023/07/12 13:05:28;;;;;;;10.65;9.00;;;;;;;34.82;40.37;99880.56;5557855;32;34550;-86
2023/07/12 13:08:36;;;;;;;18.73;8.88;;;;;;;34.12;42.47;99884.28;5560666;32;34550;-87
2023/07/12 13:11:41;;;;;;;11.85;8.80;;;;;;;34.55;40.73;99881.22;5558254;32;34243;-85
2023/07/12 13:14:48;;;;;;;11.95;8.55;;;;;;;34.04;41.80;99881.94;5557207;32;33574;-86
2023/07/12 13:17:53;;;;;;;8.88;8.00;;;;;;;34.06;42.13;99885.28;5559444;32;34222;-86
2023/07/12 13:21:21;;;;;;;11.55;8.82;;;;;;;34.16;41.35;99883.78;5548489;32;32172;-89
2023/07/12 13:24:24;;;;;;;10.13;8.70;;;;;;;33.50;41.83;99873.88;5557926;32;34293;-86
2023/07/12 13:27:36;;;;;;;11.27;8.13;;;;;;;33.60;41.61;99868.62;5558304;32;34251;-87
2023/07/12 13:30:39;;;;;;;10.82;8.90;;;;;;;34.23;41.17;99873.47;5550194;32;33557;-86
2023/07/12 13:33:42;;;;;;;10.43;7.82;;;;;;;33.95;41.96;99859.44;5567041;32;33656;-86
2023/07/12 13:36:57;;;;;;;9.57;8.27;;;;;;;34.83;39.10;99865.72;5554115;32;34892;-86
2023/07/12 13:40:01;;;;;;;11.93;8.30;;;;;;;34.50;40.44;99859.09;5557057;32;32544;-86
2023/07/12 13:43:04;;;;;;;16.40;9.23;;;;;;;34.26;40.17;99859.22;5554750;32;33895;-86
2023/07/12 13:46:28;;;;;;;9.13;8.02;;;;;;;34.15;40.20;99849.94;5547267;32;34741;-86
2023/07/12 13:49:31;;;;;;;9.10;8.23;;;;;;;34.45;39.24;99853.50;5556221;32;34816;-84
2023/07/12 13:52:34;;;;;;;9.82;7.70;;;;;;;33.84;40.27;99847.38;5548179;32;33620;-85
2023/07/12 13:55:36;;;;;;;8.60;7.65;;;;;;;34.11;39.65;99859.75;5569661;32;33709;-85
2023/07/12 13:58:46;;;;;;;7.90;7.10;;;;;;;34.99;37.98;99857.69;5567556;32;33970;-84
2023/07/12 14:02:22;;;;;;;14.70;7.85;;;;;;;34.64;36.64;99851.38;5550087;32;33914;-85
2023/07/12 14:05:28;;;;;;;;;;;;;;;34.97;37.37;99854.34;5550295;32;33785;-85
2023/07/12 14:08:47;;;;;;;9.05;7.10;;;;;;;34.20;36.51;99849.19;5550042;32;34173;-85
2023/07/12 14:11:50;;;;;;;9.45;7.10;;;;;;;34.07;36.78;99833.81;5550852;32;34409;-85
2023/07/12 14:14:53;;;;;;;10.23;6.90;;;;;;;34.61;35.19;99825.16;5556703;32;34368;-85
2023/07/12 14:17:56;;;;;;;7.62;6.05;;;;;;;34.26;35.55;99827.03;5569282;32;33741;-85
2023/07/12 14:20:59;;;;;;;10.63;6.45;;;;;;;34.18;34.94;99821.91;5569620;32;33649;-87
2023/07/12 14:24:02;;;;;;;9.30;6.62;;;;;;;34.07;35.02;99822.81;5564456;32;34614;-89
2023/07/12 14:27:04;;;;;;;7.43;6.55;;;;;;;33.90;36.49;99836.50;5562743;32;33962;-89
2023/07/12 14:30:09;;;;;;;11.18;6.10;;;;;;;34.00;36.52;99832.00;5569419;32;33754;-89
2023/07/12 14:33:29;;;;;;;8.40;6.05;;;;;;;34.12;36.22;99839.41;5567501;32;33816;-86
2023/07/12 14:36:34;;;;;;;7.82;5.97;;;;;;;34.17;35.81;99831.25;5564352;32;33963;-85
2023/07/12 14:39:36;;;;;;;10.60;5.62;;;;;;;34.67;34.50;99839.84;5540921;32;34415;-85
2023/07/12 14:42:39;;;;;;;6.85;5.60;;;;;;;34.78;33.69;99833.41;5542678;32;34635;-85
2023/07/12 14:45:42;;;;;;;9.80;5.65;;;;;;;34.79;33.50;99829.56;5550036;32;35347;-85
2023/07/12 14:48:45;;;;;;;7.03;5.57;;;;;;;34.39;34.99;99827.81;5549977;32;34464;-85
2023/07/12 14:51:48;;;;;;;8.07;5.65;;;;;;;34.54;35.58;99835.50;5567351;32;33789;-85
2023/07/12 14:55:14;;;;;;;6.15;5.55;;;;;;;33.94;34.77;99826.69;5555481;32;34475;-85
2023/07/12 14:58:17;;;;;;;11.38;5.87;;;;;;;34.09;35.59;99828.91;5569324;32;34521;-84
2023/07/12 15:01:27;;;;;;;11.77;6.05;;;;;;;34.03;35.28;99825.19;5554898;32;33594;-85
2023/07/12 15:04:30;;;;;;;7.60;5.90;;;;;;;34.09;35.79;99829.72;5556633;32;34826;-84
2023/07/12 15:07:35;;;;;;;5.25;4.75;;;;;;;33.96;36.58;99819.84;5559852;32;34198;-84
2023/07/12 15:10:38;;;;;;;9.55;4.62;;;;;;;33.44;34.48;99823.47;5558836;32;34000;-84
